Time;durP1;ratioP1;P1;durP2;ratioP2;P2;SDS_P1;SDS_P2;PMS_P1;PMS_P2;Temp;Humidity;BMP_temperature;BMP_pressure;BME280_temperature;BME280_humidity;BME280_pressure;Samples;Min_cycle;Max_cycle;Signal;HPM_P1;HPM_P2
2023/08/17 00:00:03;;;;;;;0.40;0.40;;;;;;;18.52;100.00;97026.63;29396;281;63015;-87
2023/08/17 00:00:35;;;;;;;0.35;0.35;;;;;;;18.51;100.00;97034.06;29396;204;63005;-90
2023/08/17 00:01:06;;;;;;;0.40;0.40;;;;;;;18.52;100.00;97037.59;29395;202;64013;-88
2023/08/17 00:01:39;;;;;;;0.40;0.40;;;;;;;18.49;100.00;97039.09;29396;245;63004;-89
2023/08/17 00:02:10;;;;;;;0.30;0.30;;;;;;;18.50;100.00;97031.66;29396;218;63009;-88
2023/08/17 00:02:41;;;;;;;0.30;0.30;;;;;;;18.49;100.00;97033.59;29396;205;63004;-87
2023/08/17 00:03:14;;;;;;;0.40;0.40;;;;;;;18.49;100.00;97033.59;29395;239;64013;-88
2023/08/17 00:03:46;;;;;;;0.40;0.40;;;;;;;18.49;100.00;97036.34;29396;229;63009;-89
2023/08/17 00:04:19;;;;;;;0.40;0.40;;;;;;;18.49;100.00;97039.09;29396;229;63008;-90
2023/08/17 00:04:50;;;;;;;0.40;0.40;;;;;;;18.50;100.00;97035.19;29396;255;63009;-89
2023/08/17 00:05:23;;;;;;;0.40;0.40;;;;;;;18.51;100.00;97036.81;29396;313;63009;-89
2023/08/17 00:05:54;;;;;;;0.40;0.40;;;;;;;18.51;100.00;97042.28;29396;241;63005;-89
2023/08/17 00:06:27;;;;;;;0.40;0.40;;;;;;;18.51;100.00;97036.81;29395;242;64014;-89
2023/08/17 00:06:59;;;;;;;0.40;0.40;;;;;;;18.52;100.00;97043.91;29396;279;63005;-87
2023/08/17 00:07:30;;;;;;;0.40;0.40;;;;;;;18.53;100.00;97045.50;29396;317;63009;-89
2023/08/17 00:08:02;;;;;;;0.40;0.40;;;;;;;18.53;100.00;97040.00;29396;245;63005;-88
2023/08/17 00:08:34;;;;;;;0.30;0.30;;;;;;;18.54;100.00;97046.31;29395;296;64013;-90
2023/08/17 00:09:07;;;;;;;0.40;0.40;;;;;;;18.54;100.00;97047.12;29396;234;63004;-88
2023/08/17 00:09:40;;;;;;;0.40;0.40;;;;;;;18.55;100.00;97048.72;29396;289;63009;-90
2023/08/17 00:10:15;;;;;;;0.40;0.40;;;;;;;18.56;100.00;97044.84;29396;256;63004;-89
2023/08/17 00:10:47;;;;;;;0.40;0.40;;;;;;;18.56;100.00;97038.53;29395;255;64013;-89
2023/08/17 00:11:21;;;;;;;0.40;0.40;;;;;;;18.56;100.00;97046.78;29396;220;63004;-89
2023/08/17 00:11:52;;;;;;;0.40;0.40;;;;;;;18.56;100.00;97044.84;29396;240;63016;-90
2023/08/17 00:12:25;;;;;;;0.40;0.40;;;;;;;18.56;100.00;97036.59;29396;244;63004;-89
2023/08/17 00:12:58;;;;;;;0.40;0.40;;;;;;;18.56;100.00;97044.84;29396;233;63009;-90
2023/08/17 00:13:29;;;;;;;0.40;0.40;;;;;;;18.56;100.00;97039.34;29396;199;63005;-89
2023/08/17 00:14:02;;;;;;;0.40;0.40;;;;;;;18.57;100.00;97040.12;29396;219;63009;-88
2023/08/17 00:14:33;;;;;;;0.40;0.40;;;;;;;18.56;100.00;97039.34;29396;218;63005;-90
2023/08/17 00:15:07;;;;;;;0.40;0.40;;;;;;;18.57;100.00;97038.19;29395;310;64013;-89
2023/08/17 00:15:38;;;;;;;0.40;0.40;;;;;;;18.58;100.00;97042.53;29396;284;63005;-88
2023/08/17 00:16:11;;;;;;;0.30;0.30;;;;;;;18.57;100.00;97046.44;29396;202;63009;-88
2023/08/17 00:16:42;;;;;;;0.40;0.40;;;;;;;18.58;100.00;97041.75;29395;223;64009;-90
2023/08/17 00:17:15;;;;;;;0.40;0.40;;;;;;;18.58;100.00;97039.78;29396;205;63009;-88
2023/08/17 00:17:46;;;;;;;0.40;0.40;;;;;;;18.59;100.00;97038.66;29396;207;63004;-90
2023/08/17 00:18:18;;;;;;;0.40;0.40;;;;;;;18.60;100.00;97034.00;29396;283;63004;-89
2023/08/17 00:18:49;;;;;;;0.40;0.40;;;;;;;18.61;100.00;97038.34;29396;238;63004;-89
2023/08/17 00:19:20;;;;;;;0.40;0.40;;;;;;;18.62;100.00;97032.50;29396;280;63004;-91
2023/08/17 00:19:51;;;;;;;0.40;0.40;;;;;;;18.61;100.00;97036.41;29397;280;63004;-90
2023/08/17 00:20:23;;;;;;;0.40;0.40;;;;;;;18.62;100.00;97037.19;29396;239;64009;-89
2023/08/17 00:20:54;;;;;;;0.40;0.40;;;;;;;18.61;100.00;97036.41;29395;233;64009;-90
2023/08/17 00:21:25;;;;;;;0.40;0.40;;;;;;;18.61;100.00;97035.59;29397;219;63009;-89
2023/08/17 00:21:57;;;;;;;0.40;0.40;;;;;;;18.61;100.00;97036.41;29396;207;64005;-89
2023/08/17 00:22:29;;;;;;;0.40;0.40;;;;;;;18.61;100.00;97030.09;29397;217;63009;-90
2023/08/17 00:23:00;;;;;;;0.40;0.40;;;;;;;18.61;100.00;97030.91;29397;235;63005;-90
2023/08/17 00:23:31;;;;;;;0.40;0.40;;;;;;;18.60;100.00;97029.31;29397;306;63009;-88
2023/08/17 00:24:04;;;;;;;0.40;0.40;;;;;;;18.61;100.00;97035.59;29395;222;63009;-89
2023/08/17 00:24:36;;;;;;;0.40;0.40;;;;;;;18.61;100.00;97030.09;29395;198;63009;-89
2023/08/17 00:25:09;;;;;;;0.40;0.40;;;;;;;18.61;100.00;97036.41;29395;252;63009;-90
2023/08/17 00:25:42;;;;;;;0.40;0.40;;;;;;;18.62;100.00;97031.72;29395;198;63013;-88
2023/08/17 00:26:14;;;;;;;0.40;0.40;;;;;;;18.62;100.00;97037.19;29393;202;64008;-89
2023/08/17 00:26:46;;;;;;;0.30;0.30;;;;;;;18.62;100.00;97031.72;29394;219;63019;-89
2023/08/17 00:27:18;;;;;;;0.40;0.40;;;;;;;18.60;100.00;97028.50;29395;216;63005;-89
2023/08/17 00:27:49;;;;;;;0.40;0.40;;;;;;;18.60;100.00;97034.00;29395;212;63009;-89
2023/08/17 00:28:20;;;;;;;0.32;0.32;;;;;;;18.60;100.00;97034.78;29395;221;63010;-88
2023/08/17 00:28:52;;;;;;;0.40;0.40;;;;;;;18.61;100.00;97036.41;29395;291;63009;-88
2023/08/17 00:29:24;;;;;;;0.40;0.40;;;;;;;18.60;100.00;97029.31;29395;249;63005;-88
2023/08/17 00:29:55;;;;;;;0.40;0.40;;;;;;;18.59;100.00;97027.66;29393;259;64013;-90
2023/08/17 00:30:27;;;;;;;0.40;0.40;;;;;;;18.58;100.00;97034.31;29395;207;63005;-90
2023/08/17 00:31:01;;;;;;;0.40;0.40;;;;;;;18.58;100.00;97028.81;29395;284;63009;-88
2023/08/17 00:31:32;;;;;;;0.40;0.40;;;;;;;18.58;100.00;97028.81;29395;227;63004;-89
2023/08/17 00:32:06;;;;;;;0.40;0.40;;;;;;;18.57;100.00;97029.94;29395;232;63009;-88
2023/08/17 00:32:37;;;;;;;0.40;0.40;;;;;;;18.57;100.00;97018.97;29395;221;63004;-89
2023/08/17 00:33:10;;;;;;;0.40;0.40;;;;;;;18.57;100.00;97024.44;29395;221;63009;-89
2023/08/17 00:33:42;;;;;;;0.40;0.40;;;;;;;18.57;100.00;97023.66;29395;219;63004;-90
2023/08/17 00:34:13;;;;;;;0.30;0.30;;;;;;;18.55;100.00;97013.00;29395;227;63008;-89
2023/08/17 00:34:44;;;;;;;0.40;0.40;;;;;;;18.55;100.00;97021.25;29393;242;64009;-89
2023/08/17 00:35:17;;;;;;;0.40;0.40;;;;;;;18.53;100.00;97018.03;29395;280;63009;-89
2023/08/17 00:35:48;;;;;;;0.40;0.40;;;;;;;18.53;100.00;97020.78;29393;213;64009;-90
2023/08/17 00:36:20;;;;;;;0.40;0.40;;;;;;;18.51;100.00;97017.56;29395;267;63009;-88
2023/08/17 00:36:52;;;;;;;0.40;0.40;;;;;;;18.49;100.00;97017.09;29395;268;63005;-90
2023/08/17 00:37:23;;;;;;;0.40;0.40;;;;;;;18.47;100.00;97016.66;29395;202;63009;-89
2023/08/17 00:37:54;;;;;;;0.40;0.40;;;;;;;18.46;100.00;97015.03;29395;218;63005;-89
2023/08/17 00:38:26;;;;;;;0.40;0.40;;;;;;;18.45;100.00;97020.87;29395;267;63009;-90
2023/08/17 00:38:59;;;;;;;0.40;0.40;;;;;;;18.44;100.00;97025.56;29395;316;63004;-89
2023/08/17 00:39:30;;;;;;;0.40;0.40;;;;;;;18.43;100.00;97016.53;29395;266;63009;-89
2023/08/17 00:40:05;;;;;;;0.40;0.40;;;;;;;18.43;100.00;97024.75;29395;223;63007;-91
2023/08/17 00:40:41;;;;;;;0.40;0.40;;;;;;;18.43;100.00;97019.25;29395;202;63009;-89
2023/08/17 00:41:21;;;;;;;0.40;0.40;;;;;;;18.38;100.00;97013.19;29393;196;64008;-90
2023/08/17 00:41:59;;;;;;;0.37;0.37;;;;;;;18.44;100.00;97020.06;29395;205;63009;-89
2023/08/17 00:42:30;;;;;;;0.40;0.40;;;;;;;18.44;100.00;97020.06;29395;203;63005;-88
2023/08/17 00:43:03;;;;;;;0.40;0.40;;;;;;;18.45;100.00;97015.38;29395;206;63016;-87
2023/08/17 00:43:36;;;;;;;0.40;0.40;;;;;;;18.45;100.00;97018.94;29395;206;63005;-89
2023/08/17 00:44:07;;;;;;;0.40;0.40;;;;;;;18.46;100.00;97017.78;29395;247;63009;-87
2023/08/17 00:44:39;;;;;;;0.37;0.37;;;;;;;18.47;100.00;97022.13;29395;245;63005;-88
2023/08/17 00:45:11;;;;;;;0.32;0.32;;;;;;;18.48;100.00;97021.00;29395;260;63009;-86
2023/08/17 00:45:47;;;;;;;0.40;0.40;;;;;;;18.48;100.00;97015.50;29393;252;64009;-89
2023/08/17 00:46:20;;;;;;;0.40;0.40;;;;;;;18.48;100.00;97021.00;29395;253;63009;-88
2023/08/17 00:46:53;;;;;;;0.40;0.40;;;;;;;18.48;100.00;97021.00;29395;225;63004;-89
2023/08/17 00:47:26;;;;;;;0.40;0.40;;;;;;;18.48;100.00;97021.00;29395;211;63009;-90
2023/08/17 00:48:00;;;;;;;0.40;0.40;;;;;;;18.47;100.00;97024.88;29395;249;63004;-92
2023/08/17 00:48:34;;;;;;;0.30;0.30;;;;;;;18.46;100.00;97020.53;29393;199;64013;-89
2023/08/17 00:49:07;;;;;;;0.40;0.40;;;;;;;18.45;100.00;97016.19;29395;213;63004;-88
2023/08/17 00:49:40;;;;;;;0.40;0.40;;;;;;;18.45;100.00;97021.69;29395;207;63009;-89
2023/08/17 00:50:14;;;;;;;0.30;0.30;;;;;;;18.44;100.00;97020.06;29393;206;64009;-89
2023/08/17 00:50:51;;;;;;;0.30;0.30;;;;;;;18.45;100.00;97018.94;29395;301;63009;-89
2023/08/17 00:51:24;;;;;;;0.30;0.30;;;;;;;18.45;100.00;97016.19;29396;202;63005;-91
2023/08/17 00:51:57;;;;;;;0.40;0.40;;;;;;;18.45;100.00;97018.94;29395;202;63009;-89
2023/08/17 00:52:33;;;;;;;0.40;0.40;;;;;;;18.45;100.00;97012.63;29395;228;63005;-90
2023/08/17 00:53:07;;;;;;;0.40;0.40;;;;;;;18.43;100.00;97013.78;29395;242;63009;-90
2023/08/17 00:53:38;;;;;;;0.40;0.40;;;;;;;18.43;100.00;97008.28;29395;251;63004;-89
2023/08/17 00:54:12;;;;;;;0.40;0.40;;;;;;;18.43;100.00;97012.97;29395;197;63009;-88
2023/08/17 00:54:44;;;;;;;0.40;0.40;;;;;;;18.42;100.00;97008.63;29395;243;63004;-88
2023/08/17 00:55:16;;;;;;;0.40;0.40;;;;;;;18.40;100.00;97005.41;29393;204;64013;-87
2023/08/17 00:55:51;;;;;;;0.30;0.30;;;;;;;18.40;100.00;97002.66;29395;243;63004;-89
2023/08/17 00:56:24;;;;;;;0.32;0.32;;;;;;;18.41;100.00;97010.56;29395;218;63008;-89
2023/08/17 00:56:56;;;;;;;0.40;0.40;;;;;;;18.41;100.00;97004.25;29395;242;63005;-90
2023/08/17 00:57:33;;;;;;;0.40;0.40;;;;;;;18.42;100.00;97000.38;29395;251;63009;-90
2023/08/17 00:58:05;;;;;;;0.60;0.60;;;;;;;18.42;100.00;97005.87;29395;199;63005;-90
2023/08/17 00:58:37;;;;;;;0.35;0.35;;;;;;;18.43;100.00;97007.47;29395;220;63009;-89
2023/08/17 00:59:10;;;;;;;0.40;0.40;;;;;;;18.42;100.00;97001.19;29395;221;63000;-90
2023/08/17 00:59:43;;;;;;;0.30;0.30;;;;;;;18.42;100.00;97006.66;29395;262;63009;-90
2023/08/17 01:00:17;;;;;;;0.40;0.40;;;;;;;18.43;100.00;97004.72;29395;210;63005;-91
2023/08/17 01:00:51;;;;;;;0.40;0.40;;;;;;;18.44;100.00;97003.59;29394;259;64013;-88
2023/08/17 01:01:24;;;;;;;0.30;0.30;;;;;;;18.45;100.00;96999.69;29394;265;64004;-90
2023/08/17 01:01:56;;;;;;;0.40;0.40;;;;;;;18.46;100.00;97001.28;29395;211;63013;-89
2023/08/17 01:02:36;;;;;;;0.40;0.40;;;;;;;18.47;100.00;97008.41;29395;289;63004;-89
2023/08/17 01:03:11;;;;;;;0.40;0.40;;;;;;;18.49;100.00;97000.63;29395;284;63009;-88
2023/08/17 01:03:48;;;;;;;0.40;0.40;;;;;;;18.50;100.00;97002.22;29394;240;64008;-90
2023/08/17 01:04:19;;;;;;;0.40;0.40;;;;;;;18.50;100.00;96996.72;29395;213;63008;-90
2023/08/17 01:04:50;;;;;;;0.40;0.40;;;;;;;18.51;100.00;96997.53;29394;215;64009;-90
2023/08/17 01:05:23;;;;;;;0.32;0.32;;;;;;;18.50;100.00;97002.22;29395;207;63017;-89
2023/08/17 01:05:54;;;;;;;0.40;0.40;;;;;;;18.50;100.00;97004.16;29395;197;63005;-89
2023/08/17 01:06:25;;;;;;;0.40;0.40;;;;;;;18.49;100.00;96997.87;29395;238;63009;-91
2023/08/17 01:06:57;;;;;;;0.40;0.40;;;;;;;18.51;100.00;97001.09;29395;234;63005;-88
2023/08/17 01:07:29;;;;;;;0.32;0.32;;;;;;;18.54;100.00;96999.59;29395;222;63009;-88
2023/08/17 01:08:00;;;;;;;0.40;0.40;;;;;;;18.55;100.00;96993.75;29395;219;63010;-89
2023/08/17 01:08:34;;;;;;;0.40;0.40;;;;;;;18.56;100.00;97003.63;29395;235;63009;-87
2023/08/17 01:09:08;;;;;;;0.40;0.40;;;;;;;18.57;100.00;96996.97;29395;198;63004;-88
2023/08/17 01:09:42;;;;;;;0.40;0.40;;;;;;;18.58;100.00;96998.56;29394;258;64013;-88
2023/08/17 01:10:15;;;;;;;0.40;0.40;;;;;;;18.58;100.00;96998.56;29395;248;63004;-87
2023/08/17 01:11:17;;;;;;;0.40;0.40;;;;;;;18.54;100.00;97002.34;29395;304;63009;-87
2023/08/17 01:12:04;;;;;;;0.40;0.40;;;;;;;18.53;100.00;97000.75;29395;210;63000;-90
2023/08/17 01:13:02;;;;;;;0.40;0.40;;;;;;;18.55;100.00;97003.94;29395;214;63009;-88
2023/08/17 01:13:45;;;;;;;0.40;0.40;;;;;;;18.54;100.00;97000.41;29395;251;63005;-89
2023/08/17 01:14:51;;;;;;;0.30;0.30;;;;;;;18.53;100.00;97001.53;29394;219;64013;-90
2023/08/17 01:15:40;;;;;;;0.30;0.30;;;;;;;18.55;100.00;97002.00;29395;205;63005;-89
2023/08/17 01:16:16;;;;;;;0.40;0.40;;;;;;;18.55;100.00;97003.94;29395;206;63009;-89
2023/08/17 01:17:02;;;;;;;0.40;0.40;;;;;;;18.56;100.00;97006.34;29395;198;63010;-91
2023/08/17 01:18:12;;;;;;;0.30;0.30;;;;;;;18.55;100.00;97007.50;29394;233;64030;-88
2023/08/17 01:18:47;;;;;;;0.40;0.40;;;;;;;18.55;100.00;97010.25;29394;309;64008;-89
2023/08/17 01:19:30;;;;;;;0.37;0.37;;;;;;;18.56;100.00;97008.31;29395;222;63008;-90
2023/08/17 01:20:05;;;;;;;0.40;0.40;;;;;;;18.55;100.00;97004.75;29394;207;64009;-89
2023/08/17 01:20:40;;;;;;;0.40;0.40;;;;;;;18.56;100.00;97009.09;29394;223;64009;-90
2023/08/17 01:21:17;;;;;;;0.40;0.40;;;;;;;18.58;100.00;97015.06;29395;223;63005;-88
2023/08/17 01:21:54;;;;;;;0.40;0.40;;;;;;;18.60;100.00;97014.75;29395;204;63009;-90
2023/08/17 01:22:33;;;;;;;0.40;0.40;;;;;;;18.61;100.00;97008.91;29395;199;63005;-89
2023/08/17 01:23:07;;;;;;;0.40;0.40;;;;;;;18.62;100.00;97016.03;29395;202;63016;-89
2023/08/17 01:23:39;;;;;;;0.30;0.30;;;;;;;18.63;100.00;97012.13;29395;229;63009;-89
2023/08/17 01:24:12;;;;;;;0.30;0.30;;;;;;;18.63;100.00;97012.13;29395;295;63009;-90
2023/08/17 01:24:43;;;;;;;0.40;0.40;;;;;;;18.64;100.00;97008.25;29395;208;63009;-89
2023/08/17 01:25:17;;;;;;;0.30;0.30;;;;;;;18.66;100.00;97007.91;29394;261;64013;-89
2023/08/17 01:25:49;;;;;;;0.40;0.40;;;;;;;18.67;100.00;97007.56;29395;218;63004;-89
2023/08/17 01:26:21;;;;;;;0.40;0.40;;;;;;;18.69;100.00;97004.47;29395;210;63009;-90
2023/08/17 01:26:53;;;;;;;0.30;0.30;;;;;;;18.68;100.00;97003.66;29395;202;63005;-89
2023/08/17 01:27:26;;;;;;;0.30;0.30;;;;;;;18.68;100.00;97002.88;29395;253;63021;-90
2023/08/17 01:27:58;;;;;;;0.30;0.30;;;;;;;18.67;100.00;97004.00;29395;204;63005;-90
2023/08/17 01:28:32;;;;;;;0.30;0.30;;;;;;;18.65;100.00;97009.84;29395;263;63009;-89
2023/08/17 01:29:05;;;;;;;0.30;0.30;;;;;;;18.65;100.00;97009.84;29394;246;64009;-88
2023/08/17 01:29:37;;;;;;;0.30;0.30;;;;;;;18.63;100.00;97006.63;29395;224;63009;-89
2023/08/17 01:30:15;;;;;;;0.30;0.30;;;;;;;18.61;100.00;97008.91;29395;242;63005;-89
2023/08/17 01:31:12;;;;;;;0.40;0.40;;;;;;;18.58;100.00;97006.03;29395;236;63013;-89
2023/08/17 01:32:07;;;;;;;0.40;0.40;;;;;;;18.57;100.00;97012.66;29395;227;63004;-90
2023/08/17 01:32:55;;;;;;;0.30;0.30;;;;;;;18.57;100.00;97005.22;29395;220;63009;-89
2023/08/17 01:33:55;;;;;;;0.40;0.40;;;;;;;18.58;100.00;97003.28;29394;231;64008;-90
2023/08/17 01:34:34;;;;;;;0.40;0.40;;;;;;;18.57;100.00;97007.16;29395;230;63019;-90
2023/08/17 01:35:51;;;;;;;0.30;0.30;;;;;;;18.57;100.00;97007.97;29395;279;63005;-89
2023/08/17 01:36:41;;;;;;;0.40;0.40;;;;;;;18.57;100.00;97007.97;29395;273;63009;-89
2023/08/17 01:37:18;;;;;;;0.40;0.40;;;;;;;18.56;100.00;96995.38;29395;249;63005;-90
2023/08/17 01:37:54;;;;;;;0.40;0.40;;;;;;;18.57;100.00;96996.97;29395;196;63009;-89
2023/08/17 01:38:30;;;;;;;0.40;0.40;;;;;;;18.57;100.00;97002.47;29394;229;64009;-89
2023/08/17 01:39:05;;;;;;;0.40;0.40;;;;;;;18.58;100.00;97000.53;29395;210;63009;-88
2023/08/17 01:39:44;;;;;;;0.40;0.40;;;;;;;18.58;100.00;97004.06;29395;243;63004;-90
2023/08/17 01:40:18;;;;;;;0.40;0.40;;;;;;;18.57;100.00;96996.97;29395;308;63009;-90
2023/08/17 01:40:54;;;;;;;0.30;0.30;;;;;;;18.58;100.00;96998.56;29395;207;63004;-90
2023/08/17 01:41:29;;;;;;;0.40;0.40;;;;;;;18.58;100.00;96993.09;29395;244;63009;-89
2023/08/17 01:42:02;;;;;;;0.40;0.40;;;;;;;18.58;100.00;96998.56;29395;204;63005;-91
2023/08/17 01:42:37;;;;;;;0.30;0.30;;;;;;;18.59;100.00;97000.19;29395;222;63009;-89
2023/08/17 01:43:11;;;;;;;0.40;0.40;;;;;;;18.59;100.00;97000.19;29395;282;63005;-89
2023/08/17 01:43:47;;;;;;;0.30;0.30;;;;;;;18.59;100.00;97000.19;29394;198;64013;-90
2023/08/17 01:44:20;;;;;;;0.40;0.40;;;;;;;18.61;100.00;96999.88;29395;255;63005;-89
2023/08/17 01:44:52;;;;;;;0.40;0.40;;;;;;;18.61;100.00;97003.41;29395;255;63009;-90
2023/08/17 01:45:27;;;;;;;0.40;0.40;;;;;;;18.62;100.00;96999.53;29395;208;63005;-89
2023/08/17 01:46:00;;;;;;;0.32;0.32;;;;;;;18.63;100.00;97000.34;29395;204;63009;-89
2023/08/17 01:46:34;;;;;;;0.30;0.30;;;;;;;18.64;100.00;96994.50;29395;217;63004;-90
2023/08/17 01:47:06;;;;;;;0.30;0.30;;;;;;;18.63;100.00;96995.63;29395;196;63009;-88
2023/08/17 01:47:38;;;;;;;0.40;0.40;;;;;;;18.66;100.00;96996.91;29395;198;63005;-89
2023/08/17 01:48:11;;;;;;;0.30;0.30;;;;;;;18.65;100.00;96998.84;29395;219;63008;-90
2023/08/17 01:48:46;;;;;;;0.30;0.30;;;;;;;18.65;100.00;96993.34;29394;196;64008;-89
2023/08/17 01:49:18;;;;;;;0.40;0.40;;;;;;;18.65;100.00;96990.59;29395;227;63009;-89
2023/08/17 01:49:49;;;;;;;0.40;0.40;;;;;;;18.65;100.00;96995.31;29394;212;64009;-89
2023/08/17 01:50:22;;;;;;;0.40;0.40;;;;;;;18.64;100.00;96990.94;29395;293;63009;-90
2023/08/17 01:50:53;;;;;;;0.30;0.30;;;;;;;18.63;100.00;96995.63;29394;259;64009;-89
2023/08/17 01:51:26;;;;;;;0.30;0.30;;;;;;;18.63;100.00;96995.63;29395;222;63009;-89
2023/08/17 01:51:58;;;;;;;0.40;0.40;;;;;;;18.64;100.00;97000.00;29395;244;63005;-88
2023/08/17 01:52:31;;;;;;;0.40;0.40;;;;;;;18.64;100.00;96997.25;29395;245;63009;-89
2023/08/17 01:53:04;;;;;;;0.30;0.30;;;;;;;18.65;100.00;96998.06;29395;274;63005;-90
2023/08/17 01:53:36;;;;;;;0.30;0.30;;;;;;;18.65;100.00;96998.84;29395;206;63009;-88
2023/08/17 01:54:10;;;;;;;0.30;0.30;;;;;;;18.65;100.00;97003.53;29395;203;63004;-90
2023/08/17 01:54:41;;;;;;;0.40;0.40;;;;;;;18.64;100.00;97004.69;29395;290;63009;-89
2023/08/17 01:55:12;;;;;;;0.40;0.40;;;;;;;18.63;100.00;96998.37;29394;209;64009;-89
2023/08/17 01:55:43;;;;;;;0.32;0.32;;;;;;;18.64;100.00;97002.75;29395;199;63008;-88
2023/08/17 01:56:15;;;;;;;0.30;0.30;;;;;;;18.64;100.00;97002.75;29395;280;63004;-89
2023/08/17 01:56:46;;;;;;;0.40;0.40;;;;;;;18.64;100.00;96997.25;29395;198;63018;-89
2023/08/17 01:57:18;;;;;;;0.40;0.40;;;;;;;18.63;100.00;97001.12;29395;240;63013;-88
2023/08/17 01:57:49;;;;;;;0.32;0.32;;;;;;;18.63;100.00;96995.63;29395;249;63009;-90
2023/08/17 01:58:21;;;;;;;0.30;0.30;;;;;;;18.63;100.00;96997.59;29395;279;63005;-90
2023/08/17 01:58:52;;;;;;;0.32;0.32;;;;;;;18.62;100.00;97002.28;29395;288;63009;-89
2023/08/17 01:59:23;;;;;;;0.37;0.37;;;;;;;18.62;100.00;96999.53;29395;287;63005;-89
2023/08/17 01:59:55;;;;;;;0.40;0.40;;;;;;;18.62;100.00;96999.53;29395;212;63009;-91
2023/08/17 02:00:28;;;;;;;0.40;0.40;;;;;;;18.63;100.00;97003.09;29394;198;64009;-89
2023/08/17 02:00:59;;;;;;;0.40;0.40;;;;;;;18.63;100.00;96995.63;29394;196;64013;-90
2023/08/17 02:01:30;;;;;;;0.40;0.40;;;;;;;18.64;100.00;97001.94;29395;231;63004;-89
2023/08/17 02:02:04;;;;;;;0.40;0.40;;;;;;;18.63;100.00;97001.12;29394;215;64013;-89
2023/08/17 02:02:35;;;;;;;0.40;0.40;;;;;;;18.64;100.00;97001.94;29395;218;63004;-86
2023/08/17 02:03:06;;;;;;;0.30;0.30;;;;;;;18.65;100.00;97004.34;29395;217;63009;-88
2023/08/17 02:03:37;;;;;;;0.30;0.30;;;;;;;18.60;100.00;96996.31;29395;214;63010;-89
2023/08/17 02:04:10;;;;;;;0.35;0.35;;;;;;;18.64;100.00;96997.25;29395;218;63009;-89
2023/08/17 02:04:42;;;;;;;0.40;0.40;;;;;;;18.65;100.00;96998.84;29395;231;63005;-89
2023/08/17 02:05:13;;;;;;;0.40;0.40;;;;;;;18.66;100.00;96997.72;29395;263;63009;-89
2023/08/17 02:05:46;;;;;;;0.30;0.30;;;;;;;18.67;100.00;96996.56;29394;246;64009;-88
2023/08/17 02:06:17;;;;;;;0.40;0.40;;;;;;;18.67;100.00;96987.53;29395;254;63009;-89
2023/08/17 02:06:49;;;;;;;0.40;0.40;;;;;;;18.67;100.00;97004.81;29395;214;63005;-88
2023/08/17 02:07:20;;;;;;;0.55;0.55;;;;;;;18.67;100.00;96996.56;29395;223;63019;-89
2023/08/17 02:07:51;;;;;;;0.40;0.40;;;;;;;18.67;100.00;97002.06;29395;198;63005;-88
2023/08/17 02:08:26;;;;;;;0.40;0.40;;;;;;;18.67;100.00;96996.56;29395;207;63009;-88
2023/08/17 02:08:59;;;;;;;0.40;0.40;;;;;;;18.67;100.00;96995.75;29395;233;63004;-88
2023/08/17 02:09:30;;;;;;;0.40;0.40;;;;;;;18.67;100.00;96996.56;29395;212;63009;-89
2023/08/17 02:10:02;;;;;;;0.30;0.30;;;;;;;18.68;100.00;96997.37;29395;252;63004;-89
2023/08/17 02:10:33;;;;;;;0.40;0.40;;;;;;;18.68;100.00;97000.91;29395;316;63009;-90
2023/08/17 02:11:04;;;;;;;0.40;0.40;;;;;;;18.67;100.00;97002.06;29394;284;64008;-89
2023/08/17 02:11:35;;;;;;;0.40;0.40;;;;;;;18.67;100.00;96993.81;29395;209;63009;-90
2023/08/17 02:12:08;;;;;;;0.40;0.40;;;;;;;18.67;100.00;96998.50;29395;286;63005;-92
2023/08/17 02:12:40;;;;;;;0.40;0.40;;;;;;;18.67;100.00;96993.81;29395;198;63009;-87
2023/08/17 02:13:12;;;;;;;0.30;0.30;;;;;;;18.67;100.00;96991.06;29395;231;63005;-89
2023/08/17 02:13:44;;;;;;;0.40;0.40;;;;;;;18.67;100.00;96991.06;29395;222;63009;-87
2023/08/17 02:14:16;;;;;;;0.30;0.30;;;;;;;18.67;100.00;96990.25;29395;218;63005;-90
2023/08/17 02:14:49;;;;;;;0.40;0.40;;;;;;;18.66;100.00;96983.97;29395;266;63009;-91
2023/08/17 02:15:22;;;;;;;0.30;0.30;;;;;;;18.66;100.00;96986.72;29395;227;63005;-88
2023/08/17 02:15:55;;;;;;;0.40;0.40;;;;;;;18.66;100.00;96985.91;29395;203;63009;-90
2023/08/17 02:16:27;;;;;;;0.30;0.30;;;;;;;18.66;100.00;96983.16;29394;217;64009;-89
2023/08/17 02:16:58;;;;;;;0.40;0.40;;;;;;;18.66;100.00;96983.97;29395;257;63009;-90
2023/08/17 02:17:29;;;;;;;0.40;0.40;;;;;;;18.67;100.00;96984.78;29395;215;63004;-88
2023/08/17 02:18:04;;;;;;;0.40;0.40;;;;;;;18.66;100.00;96983.16;29395;198;63009;-90
2023/08/17 02:18:36;;;;;;;0.40;0.40;;;;;;;18.66;100.00;96983.97;29395;218;63000;-90
2023/08/17 02:19:07;;;;;;;0.40;0.40;;;;;;;18.66;100.00;96983.97;29395;268;63009;-87
2023/08/17 02:19:40;;;;;;;0.82;0.82;;;;;;;18.67;100.00;96984.78;29395;221;63005;-89
2023/08/17 02:20:14;;;;;;;0.30;0.30;;;;;;;18.67;100.00;96982.81;29395;263;63009;-90
2023/08/17 02:20:46;;;;;;;0.40;0.40;;;;;;;18.67;100.00;96980.06;29395;213;63005;-90
2023/08/17 02:21:17;;;;;;;0.30;0.30;;;;;;;18.66;100.00;96977.66;29395;220;63009;-90
2023/08/17 02:21:49;;;;;;;0.40;0.40;;;;;;;18.65;100.00;96976.88;29394;258;64009;-90
2023/08/17 02:22:20;;;;;;;0.40;0.40;;;;;;;18.65;100.00;96981.56;29395;197;63009;-88
2023/08/17 02:22:51;;;;;;;0.32;0.32;;;;;;;18.65;100.00;96970.56;29395;218;63004;-89
2023/08/17 02:23:23;;;;;;;0.40;0.40;;;;;;;18.66;100.00;96983.97;29395;216;63009;-90
2023/08/17 02:23:55;;;;;;;0.40;0.40;;;;;;;18.66;100.00;96975.72;29395;239;63004;-89
2023/08/17 02:24:26;;;;;;;0.30;0.30;;;;;;;18.66;100.00;96981.22;29395;220;63018;-90
2023/08/17 02:24:58;;;;;;;0.32;0.32;;;;;;;18.66;100.00;96972.16;29395;215;63004;-90
2023/08/17 02:25:35;;;;;;;0.30;0.30;;;;;;;18.65;100.00;96976.88;29395;218;63008;-88
2023/08/17 02:26:08;;;;;;;0.35;0.35;;;;;;;18.58;100.00;96960.09;29395;227;63004;-90
2023/08/17 02:26:42;;;;;;;0.30;0.30;;;;;;;18.64;100.00;96978.00;29395;209;63009;-91
2023/08/17 02:27:13;;;;;;;0.40;0.40;;;;;;;18.64;100.00;96969.75;29394;212;64001;-90
2023/08/17 02:27:44;;;;;;;0.30;0.30;;;;;;;18.64;100.00;96974.47;29395;213;63009;-91
2023/08/17 02:28:16;;;;;;;0.30;0.30;;;;;;;18.63;100.00;96981.09;29394;232;64005;-87
2023/08/17 02:28:48;;;;;;;0.30;0.30;;;;;;;18.62;100.00;96977.53;29395;211;63009;-88
2023/08/17 02:29:19;;;;;;;0.40;0.40;;;;;;;18.60;100.00;96982.59;29395;211;63008;-89
2023/08/17 02:29:51;;;;;;;0.30;0.30;;;;;;;18.60;100.00;96974.34;29395;243;63009;-91
2023/08/17 02:30:22;;;;;;;0.30;0.30;;;;;;;18.60;100.00;96977.09;29395;351;63008;-89
2023/08/17 02:30:59;;;;;;;0.30;0.30;;;;;;;18.58;100.00;96981.28;29395;204;63009;-87
2023/08/17 02:31:31;;;;;;;0.40;0.40;;;;;;;18.58;100.00;96979.34;29395;202;63004;-89
2023/08/17 02:32:05;;;;;;;0.40;0.40;;;;;;;18.60;100.00;96973.53;29395;222;63009;-89
2023/08/17 02:32:37;;;;;;;0.30;0.30;;;;;;;18.61;100.00;96973.19;29394;196;64008;-90
2023/08/17 02:33:08;;;;;;;0.40;0.40;;;;;;;18.62;100.00;96979.50;29395;312;63008;-88
2023/08/17 02:33:40;;;;;;;0.30;0.30;;;;;;;18.61;100.00;96975.94;29395;228;63005;-90
2023/08/17 02:34:12;;;;;;;0.30;0.30;;;;;;;18.60;100.00;96979.84;29395;231;63009;-89
2023/08/17 02:34:47;;;;;;;0.30;0.30;;;;;;;18.60;100.00;96979.84;29395;243;63005;-90
2023/08/17 02:35:19;;;;;;;0.40;0.40;;;;;;;18.59;100.00;96972.69;29395;264;63009;-89
2023/08/17 02:35:52;;;;;;;0.30;0.30;;;;;;;18.59;100.00;96982.91;29395;316;63005;-90
2023/08/17 02:36:27;;;;;;;0.37;0.37;;;;;;;18.58;100.00;96971.09;29395;220;63009;-89
2023/08/17 02:37:00;;;;;;;0.30;0.30;;;;;;;18.57;100.00;96975.00;29394;221;64009;-90
2023/08/17 02:37:32;;;;;;;0.30;0.30;;;;;;;18.57;100.00;96972.25;29395;227;63009;-86
2023/08/17 02:38:05;;;;;;;0.40;0.40;;;;;;;18.58;100.00;96978.53;29395;218;63004;-89
2023/08/17 02:38:38;;;;;;;0.40;0.40;;;;;;;18.58;100.00;96976.59;29395;298;63009;-89
2023/08/17 02:39:10;;;;;;;0.40;0.40;;;;;;;18.57;100.00;96977.75;29395;215;63004;-91
2023/08/17 02:39:46;;;;;;;0.30;0.30;;;;;;;18.51;100.00;96967.31;29395;218;63009;-88